createdAt,value
2022-10-07T00:00:58.726Z,4.15
2022-10-07T00:03:27.059Z,3.72
2022-10-07T00:06:00.152Z,4.10
2022-10-07T00:08:26.627Z,4.63
2022-10-07T00:10:53.112Z,4.03
2022-10-07T00:13:19.608Z,3.88
2022-10-07T00:15:46.144Z,3.97
2022-10-07T00:18:12.592Z,3.85
2022-10-07T00:20:39.814Z,3.95
2022-10-07T00:23:07.883Z,3.95
2022-10-07T00:25:37.873Z,3.53
2022-10-07T00:28:05.043Z,4.10
2022-10-07T00:30:31.692Z,4.43
2022-10-07T00:32:58.313Z,4.63
2022-10-07T00:35:25.867Z,3.78
2022-10-07T00:37:52.400Z,4.80
2022-10-07T00:40:18.892Z,3.95
2022-10-07T00:42:46.820Z,4.10
2022-10-07T00:45:16.723Z,4.30
2022-10-07T00:47:49.261Z,3.60
2022-10-07T00:50:23.699Z,3.95
2022-10-07T00:52:55.308Z,3.67
2022-10-07T00:55:26.208Z,3.97
2022-10-07T00:57:57.288Z,4.50
2022-10-07T01:00:24.117Z,3.88
2022-10-07T01:02:51.753Z,4.40
2022-10-07T01:05:19.234Z,3.58
2022-10-07T01:07:48.467Z,3.92
2022-10-07T01:10:19.914Z,4.22
2022-10-07T01:13:09.265Z,4.15
2022-10-07T01:15:44.495Z,4.43
2022-10-07T01:18:21.512Z,4.72
2022-10-07T01:20:57.855Z,3.95
2022-10-07T01:23:28.157Z,3.95
2022-10-07T01:26:14.145Z,4.00
2022-10-07T01:28:44.526Z,4.03
2022-10-07T01:31:16.872Z,4.18
2022-10-07T01:33:50.706Z,4.03
2022-10-07T01:36:21.616Z,4.40
2022-10-07T01:38:53.453Z,4.00
2022-10-07T01:41:24.459Z,3.88
2022-10-07T01:43:54.151Z,4.35
2022-10-07T01:46:26.441Z,5.13
2022-10-07T01:48:56.257Z,3.90
2022-10-07T01:51:27.131Z,4.38
2022-10-07T01:54:21.693Z,3.40
2022-10-07T01:57:07.695Z,4.32
2022-10-07T02:00:01.231Z,3.90
2022-10-07T02:03:17.790Z,4.28
2022-10-07T02:05:58.392Z,3.85
2022-10-07T02:08:24.956Z,4.18
2022-10-07T02:11:04.438Z,3.72
2022-10-07T02:13:38.644Z,4.75
2022-10-07T02:16:21.875Z,4.25
2022-10-07T02:18:53.542Z,3.80
2022-10-07T02:21:26.784Z,5.50
2022-10-07T02:23:59.679Z,4.13
2022-10-07T02:26:29.417Z,3.80
2022-10-07T02:29:01.623Z,4.10
2022-10-07T02:31:32.573Z,4.25
2022-10-07T02:34:08.010Z,4.60
2022-10-07T02:36:40.946Z,4.15
2022-10-07T02:39:07.995Z,4.20
2022-10-07T02:41:58.663Z,4.60
2022-10-07T02:44:56.052Z,4.03
2022-10-07T02:47:35.694Z,4.03
2022-10-07T02:50:07.404Z,4.60
2022-10-07T02:52:35.025Z,3.90
2022-10-07T02:55:09.497Z,4.78
2022-10-07T02:57:51.961Z,4.32
2022-10-07T03:00:19.757Z,4.10
2022-10-07T03:03:02.560Z,4.07
2022-10-07T03:05:54.504Z,4.55
2022-10-07T03:08:23.227Z,4.40
2022-10-07T03:10:50.809Z,4.38
2022-10-07T03:13:18.041Z,4.97
2022-10-07T03:15:52.038Z,5.05
2022-10-07T03:18:26.638Z,5.30
2022-10-07T03:21:00.886Z,4.88
2022-10-07T03:23:29.203Z,5.65
2022-10-07T03:26:00.945Z,5.22
2022-10-07T03:28:30.028Z,4.53
2022-10-07T03:31:07.615Z,4.75
2022-10-07T03:33:37.399Z,4.55
2022-10-07T03:36:05.987Z,4.97
2022-10-07T03:38:33.612Z,4.30
2022-10-07T03:41:01.926Z,4.43
2022-10-07T03:43:28.815Z,4.40
2022-10-07T03:45:56.895Z,5.03
2022-10-07T03:48:23.394Z,4.63
2022-10-07T03:50:57.201Z,3.78
2022-10-07T03:53:29.467Z,3.88
2022-10-07T03:55:57.746Z,4.85
2022-10-07T03:58:24.454Z,3.85
2022-10-07T04:00:51.667Z,4.47
2022-10-07T04:03:18.694Z,3.75
2022-10-07T04:05:59.638Z,3.90
2022-10-07T04:08:29.051Z,4.45
2022-10-07T04:10:59.649Z,3.58
2022-10-07T04:13:27.102Z,4.32
2022-10-07T04:15:54.682Z,3.65
2022-10-07T04:18:22.563Z,3.95
2022-10-07T04:20:51.390Z,4.03
2022-10-07T04:23:17.926Z,4.00
2022-10-07T04:25:46.767Z,3.97
2022-10-07T04:28:23.229Z,3.90
2022-10-07T04:30:55.148Z,4.65
2022-10-07T04:33:27.393Z,4.85
2022-10-07T04:35:55.857Z,3.95
2022-10-07T04:38:27.585Z,4.22
2022-10-07T04:40:55.736Z,4.05
2022-10-07T04:43:23.563Z,4.50
2022-10-07T04:46:09.169Z,4.85
2022-10-07T04:48:43.859Z,3.92
2022-10-07T04:51:10.639Z,4.78
2022-10-07T04:53:39.492Z,3.88
2022-10-07T04:56:12.074Z,4.60
2022-10-07T04:58:38.629Z,4.05
2022-10-07T05:01:09.349Z,4.53
2022-10-07T05:03:41.029Z,4.30
2022-10-07T05:06:23.993Z,4.63
2022-10-07T05:08:52.997Z,4.18
2022-10-07T05:11:20.591Z,4.20
2022-10-07T05:14:02.234Z,3.75
2022-10-07T05:16:31.294Z,3.55
2022-10-07T05:18:58.568Z,3.92
2022-10-07T05:21:25.097Z,3.95
2022-10-07T05:23:58.062Z,5.05
2022-10-07T05:26:29.974Z,3.90
2022-10-07T05:28:59.434Z,4.32
2022-10-07T05:31:33.357Z,4.28
2022-10-07T05:34:06.041Z,4.53
2022-10-07T05:36:32.958Z,4.82
2022-10-07T05:39:01.115Z,4.93
2022-10-07T05:41:45.394Z,4.55
2022-10-07T05:44:18.661Z,3.40
2022-10-07T05:46:46.918Z,3.90
2022-10-07T05:49:15.630Z,4.28
2022-10-07T05:51:42.263Z,4.03
2022-10-07T05:54:13.742Z,5.07
2022-10-07T05:56:42.838Z,4.75
2022-10-07T05:59:10.401Z,4.07
2022-10-07T06:01:38.783Z,4.07
2022-10-07T06:04:14.287Z,4.25
2022-10-07T06:06:44.043Z,4.32
2022-10-07T06:09:30.688Z,4.32
2022-10-07T06:12:18.194Z,4.13
2022-10-07T06:14:50.508Z,4.18
2022-10-07T06:17:17.067Z,4.28
2022-10-07T06:19:45.462Z,3.70
2022-10-07T06:22:11.978Z,3.72
2022-10-07T06:24:43.812Z,4.68
2022-10-07T06:27:10.855Z,4.70
2022-10-07T06:29:38.742Z,3.70
2022-10-07T06:32:05.877Z,3.95
2022-10-07T06:34:33.125Z,3.95
2022-10-07T06:36:59.924Z,3.97
2022-10-07T06:39:26.978Z,3.92
2022-10-07T06:41:54.584Z,3.58
2022-10-07T06:44:34.937Z,4.05
2022-10-07T06:47:01.625Z,3.90
2022-10-07T06:49:28.199Z,3.65
2022-10-07T06:51:54.682Z,3.65
2022-10-07T06:54:25.542Z,3.45
2022-10-07T06:56:52.238Z,3.20
2022-10-07T06:59:18.715Z,3.90
2022-10-07T07:01:52.939Z,3.17
2022-10-07T07:04:27.363Z,3.60
2022-10-07T07:06:54.619Z,3.53
2022-10-07T07:09:22.767Z,4.85
2022-10-07T07:11:54.251Z,3.58
2022-10-07T07:14:35.643Z,3.88
2022-10-07T07:17:14.635Z,3.33
2022-10-07T07:19:43.844Z,3.40
2022-10-07T07:22:11.933Z,2.92
2022-10-07T07:24:40.275Z,3.20
2022-10-07T07:27:07.926Z,3.35
2022-10-07T07:29:35.318Z,3.42
2022-10-07T07:32:04.289Z,3.28
2022-10-07T07:34:37.994Z,3.42
2022-10-07T07:37:05.963Z,3.13
2022-10-07T07:39:37.543Z,2.97
2022-10-07T07:42:10.086Z,3.45
2022-10-07T07:44:38.890Z,2.78
2022-10-07T07:47:09.253Z,3.35
2022-10-07T07:49:36.544Z,2.92
2022-10-07T07:52:04.300Z,3.35
2022-10-07T07:54:41.825Z,2.90
2022-10-07T07:57:08.694Z,2.58
2022-10-07T07:59:37.315Z,2.88
2022-10-07T08:02:05.703Z,2.78
2022-10-07T08:04:36.231Z,3.60
2022-10-07T08:07:03.451Z,3.75
2022-10-07T08:09:30.087Z,3.08
2022-10-07T08:11:57.622Z,3.40
2022-10-07T08:14:24.291Z,4.72
2022-10-07T08:16:55.518Z,2.92
2022-10-07T08:19:22.008Z,3.40
2022-10-07T08:21:48.853Z,3.50
2022-10-07T08:24:25.706Z,4.30
2022-10-07T08:26:53.615Z,2.90
2022-10-07T08:29:21.157Z,2.80
2022-10-07T08:31:49.211Z,3.00
2022-10-07T08:34:17.156Z,2.50
2022-10-07T08:36:47.648Z,2.38
2022-10-07T08:39:15.041Z,2.42
2022-10-07T08:42:05.519Z,2.78
2022-10-07T08:44:41.518Z,3.67
2022-10-07T08:47:34.578Z,4.30
2022-10-07T08:50:19.693Z,2.85
2022-10-07T08:53:11.607Z,3.08
2022-10-07T08:55:45.865Z,3.28
2022-10-07T08:58:30.936Z,2.75
2022-10-07T09:01:12.726Z,3.20
2022-10-07T09:04:15.222Z,2.40
2022-10-07T09:06:55.847Z,2.40
2022-10-07T09:09:28.253Z,3.53
2022-10-07T09:11:56.218Z,2.05
2022-10-07T09:14:38.150Z,2.38
2022-10-07T09:17:15.494Z,2.38
2022-10-07T09:19:46.760Z,2.45
2022-10-07T09:22:21.718Z,2.40
2022-10-07T09:25:09.023Z,2.60
2022-10-07T09:27:37.766Z,2.35
2022-10-07T09:30:06.401Z,2.55
2022-10-07T09:32:35.478Z,2.05
2022-10-07T09:35:06.901Z,2.50
2022-10-07T09:37:34.201Z,2.28
2022-10-07T09:40:23.236Z,2.50
2022-10-07T09:42:50.594Z,2.75
2022-10-07T09:45:23.863Z,2.33
2022-10-07T09:47:55.881Z,2.42
2022-10-07T09:50:38.988Z,2.33
2022-10-07T09:53:18.279Z,2.35
2022-10-07T09:55:45.333Z,2.03
2022-10-07T09:58:29.235Z,3.45
2022-10-07T10:00:57.919Z,2.28
2022-10-07T10:03:35.716Z,2.47
2022-10-07T10:06:09.642Z,2.67
2022-10-07T10:08:43.099Z,2.15
2022-10-07T10:11:25.691Z,2.40
2022-10-07T10:13:56.368Z,2.08
2022-10-07T10:16:26.065Z,2.17
2022-10-07T10:19:02.361Z,2.33
2022-10-07T10:21:32.541Z,2.70
2022-10-07T10:24:10.387Z,2.78
2022-10-07T10:26:48.738Z,2.20
2022-10-07T10:29:40.074Z,2.65
2022-10-07T10:32:37.246Z,2.65
2022-10-07T10:35:36.815Z,2.00
2022-10-07T10:38:26.211Z,2.20
2022-10-07T10:41:11.505Z,2.55
2022-10-07T10:44:01.551Z,1.95
2022-10-07T10:46:39.357Z,2.25
2022-10-07T10:49:36.478Z,2.05
2022-10-07T10:52:25.843Z,1.92
2022-10-07T10:55:08.259Z,2.20
2022-10-07T10:58:16.393Z,1.95
2022-10-07T11:01:00.141Z,2.30
2022-10-07T11:03:55.061Z,1.83
2022-10-07T11:06:22.418Z,2.05
2022-10-07T11:08:52.663Z,2.25
2022-10-07T11:11:21.784Z,2.00
2022-10-07T11:14:12.147Z,1.90
2022-10-07T11:16:44.781Z,2.45
2022-10-07T11:19:23.816Z,2.25
2022-10-07T11:21:52.723Z,2.97
2022-10-07T11:24:44.111Z,2.40
2022-10-07T11:27:25.991Z,2.03
2022-10-07T11:30:10.082Z,2.63
2022-10-07T11:33:08.216Z,3.20
2022-10-07T11:35:43.881Z,2.10
2022-10-07T11:38:10.295Z,1.90
2022-10-07T11:40:45.541Z,2.03
2022-10-07T11:43:47.625Z,2.05
2022-10-07T11:46:33.671Z,2.10
2022-10-07T11:49:14.827Z,1.80
2022-10-07T11:52:02.838Z,2.05
2022-10-07T11:54:42.328Z,1.85
2022-10-07T11:57:20.810Z,2.08
2022-10-07T11:59:58.032Z,1.80
2022-10-07T12:02:30.736Z,2.50
2022-10-07T12:05:01.339Z,1.63
2022-10-07T12:07:40.583Z,1.58
2022-10-07T12:10:20.105Z,2.05
2022-10-07T12:12:49.105Z,2.00
2022-10-07T12:15:40.479Z,2.00
2022-10-07T12:18:10.384Z,2.10
2022-10-07T12:20:50.169Z,1.90
2022-10-07T12:23:19.734Z,1.95
2022-10-07T12:25:48.225Z,2.13
2022-10-07T12:28:36.681Z,1.65
2022-10-07T12:31:16.288Z,1.60
2022-10-07T12:34:04.215Z,1.60
2022-10-07T12:36:31.511Z,1.80
2022-10-07T12:39:01.899Z,1.42
2022-10-07T12:41:34.442Z,2.03
2022-10-07T12:44:20.080Z,1.90
2022-10-07T12:46:51.174Z,1.70
2022-10-07T12:49:17.628Z,1.70
2022-10-07T12:51:45.156Z,1.92
2022-10-07T12:54:20.439Z,1.70
2022-10-07T12:56:48.246Z,1.48
2022-10-07T12:59:33.360Z,1.63
2022-10-07T13:02:31.450Z,2.13
2022-10-07T13:05:27.381Z,2.15
2022-10-07T13:08:36.094Z,1.70
2022-10-07T13:11:44.306Z,2.10
2022-10-07T13:14:23.907Z,2.13
2022-10-07T13:17:25.193Z,1.65
2022-10-07T13:20:06.629Z,1.67
2022-10-07T13:22:33.455Z,1.90
2022-10-07T13:25:07.568Z,1.80
2022-10-07T13:27:35.234Z,2.15
2022-10-07T13:30:05.974Z,2.08
2022-10-07T13:32:34.499Z,1.30
2022-10-07T13:35:30.226Z,1.35
2022-10-07T13:37:56.900Z,1.45
2022-10-07T13:40:35.434Z,1.88
2022-10-07T13:43:06.892Z,1.67
2022-10-07T13:45:43.544Z,2.15
2022-10-07T13:48:25.939Z,1.80
2022-10-07T13:50:56.914Z,1.20
2022-10-07T13:53:28.412Z,2.10
2022-10-07T13:56:20.561Z,1.60
2022-10-07T13:58:47.652Z,1.40
2022-10-07T14:01:15.627Z,1.65
2022-10-07T14:04:16.806Z,2.03
2022-10-07T14:06:43.671Z,1.40
2022-10-07T14:09:21.488Z,1.98
2022-10-07T14:11:54.008Z,1.90
2022-10-07T14:14:33.486Z,1.55
2022-10-07T14:17:00.498Z,1.98
2022-10-07T14:19:32.702Z,1.67
2022-10-07T14:22:04.405Z,1.40
2022-10-07T14:24:32.836Z,1.55
2022-10-07T14:27:00.592Z,1.73
2022-10-07T14:29:30.933Z,1.92
2022-10-07T14:32:39.774Z,2.20
2022-10-07T14:35:19.717Z,1.60
2022-10-07T14:37:47.362Z,1.73
2022-10-07T14:40:23.245Z,1.23
2022-10-07T14:42:53.769Z,1.83
2022-10-07T14:45:22.426Z,2.10
2022-10-07T14:47:49.687Z,1.45
2022-10-07T14:50:19.444Z,1.55
2022-10-07T14:52:51.859Z,2.00
2022-10-07T14:55:23.186Z,1.75
2022-10-07T14:57:50.037Z,2.28
2022-10-07T15:00:20.107Z,1.65
2022-10-07T15:02:48.023Z,2.28
2022-10-07T15:05:16.745Z,1.50
2022-10-07T15:07:43.821Z,1.58
2022-10-07T15:10:23.119Z,2.08
2022-10-07T15:12:50.099Z,1.52
2022-10-07T15:15:18.621Z,2.03
2022-10-07T15:17:45.550Z,1.50
2022-10-07T15:20:15.040Z,1.90
2022-10-07T15:22:42.519Z,2.25
2022-10-07T15:25:15.214Z,2.15
2022-10-07T15:27:42.282Z,1.52
2022-10-07T15:30:09.628Z,1.90
2022-10-07T15:32:36.196Z,1.65
2022-10-07T15:35:03.855Z,2.25
2022-10-07T15:37:32.252Z,1.70
2022-10-07T15:39:58.872Z,1.63
2022-10-07T15:42:26.122Z,1.73
2022-10-07T15:44:55.767Z,1.60
2022-10-07T15:47:22.290Z,2.10
2022-10-07T15:49:49.491Z,2.60
2022-10-07T15:52:16.538Z,1.70
2022-10-07T15:54:46.432Z,1.58
2022-10-07T15:57:14.175Z,1.30
2022-10-07T15:59:40.878Z,2.03
2022-10-07T16:02:14.828Z,2.45
2022-10-07T16:04:42.853Z,2.17
2022-10-07T16:07:11.993Z,1.52
2022-10-07T16:09:38.942Z,2.25
2022-10-07T16:12:06.333Z,1.70
2022-10-07T16:14:37.073Z,1.50
2022-10-07T16:17:04.141Z,1.95
2022-10-07T16:19:30.634Z,1.83
2022-10-07T16:21:57.154Z,1.55
2022-10-07T16:24:24.806Z,2.08
2022-10-07T16:26:51.380Z,1.67
2022-10-07T16:29:40.670Z,1.50
2022-10-07T16:32:10.513Z,1.88
2022-10-07T16:34:43.403Z,1.60
2022-10-07T16:37:11.131Z,1.33
2022-10-07T16:39:37.830Z,1.80
2022-10-07T16:42:04.391Z,2.00
2022-10-07T16:44:32.876Z,2.00
2022-10-07T16:47:00.219Z,1.95
2022-10-07T16:49:29.240Z,2.10
2022-10-07T16:51:56.656Z,2.95
2022-10-07T16:54:29.997Z,1.80
2022-10-07T16:56:58.562Z,2.10
2022-10-07T16:59:25.853Z,2.38
2022-10-07T17:01:55.571Z,2.53
2022-10-07T17:04:26.602Z,2.15
2022-10-07T17:06:53.660Z,2.30
2022-10-07T17:09:21.777Z,2.08
2022-10-07T17:11:48.267Z,1.77
2022-10-07T17:14:20.805Z,1.73
2022-10-07T17:16:49.789Z,2.22
2022-10-07T17:19:18.519Z,2.17
2022-10-07T17:21:48.077Z,1.85
2022-10-07T17:24:20.450Z,2.28
2022-10-07T17:26:47.656Z,1.95
2022-10-07T17:29:18.284Z,2.05
2022-10-07T17:31:48.242Z,2.05
2022-10-07T17:34:20.818Z,2.00
2022-10-07T17:36:48.248Z,2.10
2022-10-07T17:39:15.213Z,2.05
2022-10-07T17:41:41.748Z,2.28
2022-10-07T17:44:12.631Z,2.38
2022-10-07T17:46:40.348Z,2.38
2022-10-07T17:49:09.582Z,2.55
2022-10-07T17:51:37.399Z,2.55
2022-10-07T17:54:07.103Z,2.20
2022-10-07T17:56:34.513Z,2.28
2022-10-07T17:59:02.132Z,1.90
2022-10-07T18:01:31.778Z,3.08
2022-10-07T18:04:02.359Z,2.53
2022-10-07T18:06:31.430Z,2.30
2022-10-07T18:09:03.311Z,2.00
2022-10-07T18:11:48.886Z,2.20
2022-10-07T18:14:34.598Z,2.70
2022-10-07T18:19:29.359Z,2.20
2022-10-07T18:21:56.428Z,2.05
2022-10-07T18:24:28.702Z,2.80
2022-10-07T18:26:58.880Z,2.38
2022-10-07T18:29:26.735Z,2.33
2022-10-07T18:31:53.357Z,2.15
2022-10-07T18:34:23.208Z,2.97
2022-10-07T18:36:53.789Z,2.47
2022-10-07T18:39:22.615Z,1.98
2022-10-07T18:41:49.149Z,2.75
2022-10-07T18:44:18.912Z,2.67
2022-10-07T18:46:45.543Z,2.65
2022-10-07T18:49:14.890Z,2.40
2022-10-07T18:51:41.565Z,2.60
2022-10-07T18:54:10.474Z,2.75
2022-10-07T18:56:40.897Z,3.38
2022-10-07T18:59:08.155Z,2.95
2022-10-07T19:01:34.935Z,3.10
2022-10-07T19:04:10.941Z,2.95
2022-10-07T19:06:40.169Z,3.33
2022-10-07T19:09:08.937Z,3.10
2022-10-07T19:11:35.850Z,3.35
2022-10-07T19:14:06.658Z,3.35
2022-10-07T19:16:36.638Z,3.17
2022-10-07T19:19:09.782Z,2.80
2022-10-07T19:21:36.365Z,3.08
2022-10-07T19:24:04.904Z,3.17
2022-10-07T19:26:38.532Z,2.83
2022-10-07T19:29:06.412Z,3.22
2022-10-07T19:31:35.989Z,2.78
2022-10-07T19:34:27.183Z,2.90
2022-10-07T19:36:55.029Z,3.15
2022-10-07T19:39:23.569Z,3.53
2022-10-07T19:41:51.039Z,2.55
2022-10-07T19:44:19.675Z,3.05
2022-10-07T19:46:50.143Z,2.80
2022-10-07T19:49:16.711Z,3.22
2022-10-07T19:51:45.461Z,3.25
2022-10-07T19:54:13.356Z,4.60
2022-10-07T19:56:40.601Z,3.38
2022-10-07T19:59:12.242Z,3.00
2022-10-07T20:01:43.968Z,2.97
2022-10-07T20:04:18.524Z,2.70
2022-10-07T20:06:45.427Z,3.40
2022-10-07T20:09:15.431Z,3.20
2022-10-07T20:11:42.343Z,2.70
2022-10-07T20:14:13.506Z,2.80
2022-10-07T20:16:40.163Z,3.08
2022-10-07T20:19:10.992Z,2.95
2022-10-07T20:21:38.152Z,2.90
2022-10-07T20:24:08.487Z,2.83
2022-10-07T20:26:37.706Z,2.63
2022-10-07T20:29:06.146Z,2.45
2022-10-07T20:31:35.600Z,2.70
2022-10-07T20:34:03.423Z,2.92
2022-10-07T20:36:36.269Z,3.17
2022-10-07T20:39:24.939Z,3.20
2022-10-07T20:42:11.830Z,3.25
2022-10-07T20:44:39.035Z,2.85
2022-10-07T20:47:07.637Z,2.30
2022-10-07T20:49:35.163Z,3.30
2022-10-07T20:52:07.000Z,2.90
2022-10-07T20:54:36.695Z,3.10
2022-10-07T20:57:03.989Z,2.83
2022-10-07T20:59:31.206Z,3.53
2022-10-07T21:01:58.738Z,2.88
2022-10-07T21:04:29.716Z,2.72
2022-10-07T21:06:56.815Z,2.78
2022-10-07T21:09:24.145Z,3.67
2022-10-07T21:11:51.498Z,2.53
2022-10-07T21:14:23.318Z,2.45
2022-10-07T21:16:50.000Z,3.15
2022-10-07T21:19:17.085Z,3.00
2022-10-07T21:21:44.177Z,3.60
2022-10-07T21:24:12.594Z,2.95
2022-10-07T21:26:39.098Z,3.63
2022-10-07T21:29:08.116Z,3.80
2022-10-07T21:31:35.675Z,3.55
2022-10-07T21:34:07.905Z,2.67
2022-10-07T21:36:37.037Z,3.05
2022-10-07T21:39:04.246Z,3.17
2022-10-07T21:41:34.306Z,2.65
2022-10-07T21:44:11.563Z,4.07
2022-10-07T21:46:39.970Z,2.92
2022-10-07T21:49:07.705Z,2.58
2022-10-07T21:51:34.673Z,3.90
2022-10-07T21:54:06.088Z,3.05
2022-10-07T21:56:34.039Z,3.65
2022-10-07T21:59:01.474Z,3.80
2022-10-07T22:01:28.830Z,2.90
2022-10-07T22:04:01.871Z,3.00
2022-10-07T22:06:50.601Z,3.08
2022-10-07T22:09:20.266Z,3.25
2022-10-07T22:11:47.013Z,4.30
2022-10-07T22:14:15.722Z,3.08
2022-10-07T22:16:42.333Z,3.50
2022-10-07T22:19:10.713Z,3.50
2022-10-07T22:21:40.155Z,3.20
2022-10-07T22:24:09.046Z,3.00
2022-10-07T22:26:41.934Z,3.42
2022-10-07T22:29:09.941Z,4.57
2022-10-07T22:31:37.344Z,2.70
2022-10-07T22:34:06.323Z,3.17
2022-10-07T22:36:33.436Z,2.95
2022-10-07T22:39:00.175Z,2.80
2022-10-07T22:41:27.527Z,3.10
2022-10-07T22:43:59.447Z,2.72
2022-10-07T22:46:28.236Z,3.30
2022-10-07T22:48:58.482Z,3.03
2022-10-07T22:51:29.186Z,2.90
2022-10-07T22:53:59.344Z,2.85
2022-10-07T22:56:28.058Z,2.85
2022-10-07T22:59:00.244Z,3.03
2022-10-07T23:01:29.486Z,3.10
2022-10-07T23:03:58.762Z,3.15
2022-10-07T23:06:25.398Z,3.38
2022-10-07T23:08:52.028Z,2.95
2022-10-07T23:11:24.093Z,2.60
2022-10-07T23:13:55.567Z,3.40
2022-10-07T23:16:24.769Z,2.58
2022-10-07T23:18:53.591Z,2.58
2022-10-07T23:21:23.695Z,3.13
2022-10-07T23:23:56.598Z,2.65
2022-10-07T23:26:26.183Z,3.17
2022-10-07T23:28:54.436Z,2.78
2022-10-07T23:31:22.661Z,2.65
2022-10-07T23:33:52.101Z,2.53
2022-10-07T23:36:20.692Z,2.90
2022-10-07T23:38:49.137Z,2.78
2022-10-07T23:41:18.476Z,2.40
2022-10-07T23:43:51.547Z,2.63
2022-10-07T23:46:19.722Z,2.72
2022-10-07T23:48:47.174Z,2.40
2022-10-07T23:51:20.526Z,2.80
2022-10-07T23:53:51.506Z,2.33
2022-10-07T23:56:19.051Z,2.78
2022-10-07T23:58:45.766Z,2.50
